sensor_id;sensor_type;location;lat;lon;timestamp;temperature;humidity
6178;DHT22;3122;48.208;11.174;2023-03-09T00:03:03;10.60;1.00
6178;DHT22;3122;48.208;11.174;2023-03-09T00:08:04;10.60;1.00
6178;DHT22;3122;48.208;11.174;2023-03-09T00:13:04;10.50;1.00
6178;DHT22;3122;48.208;11.174;2023-03-09T00:18:05;10.50;1.00
6178;DHT22;3122;48.208;11.174;2023-03-09T00:23:05;10.40;1.00
6178;DHT22;3122;48.208;11.174;2023-03-09T00:28:09;10.20;1.00
6178;DHT22;3122;48.208;11.174;2023-03-09T00:33:09;10.10;1.00
6178;DHT22;3122;48.208;11.174;2023-03-09T00:38:10;10.10;1.00
6178;DHT22;3122;48.208;11.174;2023-03-09T00:43:11;10.10;1.00
6178;DHT22;3122;48.208;11.174;2023-03-09T00:48:11;10.10;1.00
6178;DHT22;3122;48.208;11.174;2023-03-09T00:53:12;10.00;1.00
6178;DHT22;3122;48.208;11.174;2023-03-09T00:58:12;10.00;1.00
6178;DHT22;3122;48.208;11.174;2023-03-09T01:03:13;10.00;1.00
6178;DHT22;3122;48.208;11.174;2023-03-09T01:08:13;9.80;1.00
6178;DHT22;3122;48.208;11.174;2023-03-09T01:13:14;9.80;1.00
6178;DHT22;3122;48.208;11.174;2023-03-09T01:18:15;9.80;1.00
6178;DHT22;3122;48.208;11.174;2023-03-09T01:23:15;9.60;1.00
6178;DHT22;3122;48.208;11.174;2023-03-09T01:28:16;9.70;1.00
6178;DHT22;3122;48.208;11.174;2023-03-09T01:33:16;9.60;1.00
6178;DHT22;3122;48.208;11.174;2023-03-09T01:38:17;9.70;1.00
6178;DHT22;3122;48.208;11.174;2023-03-09T01:43:32;9.80;1.00
6178;DHT22;3122;48.208;11.174;2023-03-09T01:48:35;10.00;1.00
6178;DHT22;3122;48.208;11.174;2023-03-09T01:53:35;10.00;1.00
6178;DHT22;3122;48.208;11.174;2023-03-09T01:58:37;10.00;1.00
6178;DHT22;3122;48.208;11.174;2023-03-09T02:03:39;9.90;1.00
6178;DHT22;3122;48.208;11.174;2023-03-09T02:09:03;9.90;1.00
6178;DHT22;3122;48.208;11.174;2023-03-09T02:14:07;9.90;1.00
6178;DHT22;3122;48.208;11.174;2023-03-09T02:19:23;9.40;1.00
6178;DHT22;3122;48.208;11.174;2023-03-09T02:24:48;9.10;1.00
6178;DHT22;3122;48.208;11.174;2023-03-09T02:29:49;8.90;1.00
6178;DHT22;3122;48.208;11.174;2023-03-09T02:34:51;8.10;1.00
6178;DHT22;3122;48.208;11.174;2023-03-09T02:39:55;7.40;1.00
6178;DHT22;3122;48.208;11.174;2023-03-09T02:44:57;7.60;1.00
6178;DHT22;3122;48.208;11.174;2023-03-09T02:49:58;7.50;1.00
6178;DHT22;3122;48.208;11.174;2023-03-09T02:54:58;7.40;1.00
6178;DHT22;3122;48.208;11.174;2023-03-09T02:59:59;7.40;1.00
6178;DHT22;3122;48.208;11.174;2023-03-09T03:05:00;7.40;1.00
6178;DHT22;3122;48.208;11.174;2023-03-09T03:10:00;7.70;1.00
6178;DHT22;3122;48.208;11.174;2023-03-09T03:15:01;8.00;1.00
6178;DHT22;3122;48.208;11.174;2023-03-09T03:20:03;8.10;1.00
6178;DHT22;3122;48.208;11.174;2023-03-09T03:25:05;8.10;1.00
6178;DHT22;3122;48.208;11.174;2023-03-09T03:30:07;8.10;1.00
6178;DHT22;3122;48.208;11.174;2023-03-09T03:35:08;8.10;1.00
6178;DHT22;3122;48.208;11.174;2023-03-09T03:40:09;8.10;1.00
6178;DHT22;3122;48.208;11.174;2023-03-09T03:45:10;8.30;1.00
6178;DHT22;3122;48.208;11.174;2023-03-09T03:50:11;8.30;1.00
6178;DHT22;3122;48.208;11.174;2023-03-09T03:55:11;8.40;1.00
6178;DHT22;3122;48.208;11.174;2023-03-09T04:00:12;8.40;1.00
6178;DHT22;3122;48.208;11.174;2023-03-09T04:05:13;8.30;1.00
6178;DHT22;3122;48.208;11.174;2023-03-09T04:10:13;8.40;1.00
6178;DHT22;3122;48.208;11.174;2023-03-09T04:15:14;8.40;1.00
6178;DHT22;3122;48.208;11.174;2023-03-09T04:20:15;8.50;1.00
6178;DHT22;3122;48.208;11.174;2023-03-09T04:25:15;8.40;1.00
6178;DHT22;3122;48.208;11.174;2023-03-09T04:30:16;8.30;1.00
6178;DHT22;3122;48.208;11.174;2023-03-09T04:35:20;8.30;1.00
6178;DHT22;3122;48.208;11.174;2023-03-09T04:40:21;8.30;1.00
6178;DHT22;3122;48.208;11.174;2023-03-09T04:45:21;8.30;1.00
6178;DHT22;3122;48.208;11.174;2023-03-09T04:50:22;8.30;1.00
6178;DHT22;3122;48.208;11.174;2023-03-09T04:55:23;8.40;1.00
6178;DHT22;3122;48.208;11.174;2023-03-09T05:00:24;8.40;1.00
6178;DHT22;3122;48.208;11.174;2023-03-09T05:05:25;8.40;1.00
6178;DHT22;3122;48.208;11.174;2023-03-09T05:10:26;8.30;1.00
6178;DHT22;3122;48.208;11.174;2023-03-09T05:15:26;8.30;1.00
6178;DHT22;3122;48.208;11.174;2023-03-09T05:20:27;8.30;1.00
6178;DHT22;3122;48.208;11.174;2023-03-09T05:25:27;8.20;1.00
6178;DHT22;3122;48.208;11.174;2023-03-09T05:30:28;8.20;1.00
6178;DHT22;3122;48.208;11.174;2023-03-09T05:35:29;8.20;1.00
6178;DHT22;3122;48.208;11.174;2023-03-09T05:40:30;8.20;1.00
6178;DHT22;3122;48.208;11.174;2023-03-09T05:45:30;8.10;1.00
6178;DHT22;3122;48.208;11.174;2023-03-09T05:50:31;8.00;1.00
6178;DHT22;3122;48.208;11.174;2023-03-09T05:55:33;7.90;1.00
6178;DHT22;3122;48.208;11.174;2023-03-09T06:00:33;7.80;1.00
6178;DHT22;3122;48.208;11.174;2023-03-09T06:05:34;7.80;1.00
6178;DHT22;3122;48.208;11.174;2023-03-09T06:10:36;7.80;1.00
6178;DHT22;3122;48.208;11.174;2023-03-09T06:15:37;7.70;1.00
6178;DHT22;3122;48.208;11.174;2023-03-09T06:20:38;7.70;1.00
6178;DHT22;3122;48.208;11.174;2023-03-09T06:25:39;7.70;1.00
6178;DHT22;3122;48.208;11.174;2023-03-09T06:30:39;7.70;1.00
6178;DHT22;3122;48.208;11.174;2023-03-09T06:35:40;7.60;1.00
6178;DHT22;3122;48.208;11.174;2023-03-09T06:40:41;7.60;1.00
6178;DHT22;3122;48.208;11.174;2023-03-09T06:45:44;7.60;1.00
6178;DHT22;3122;48.208;11.174;2023-03-09T06:50:45;7.70;1.00
6178;DHT22;3122;48.208;11.174;2023-03-09T06:55:46;7.70;1.00
6178;DHT22;3122;48.208;11.174;2023-03-09T07:00:47;7.70;1.00
6178;DHT22;3122;48.208;11.174;2023-03-09T07:05:48;7.70;1.00
6178;DHT22;3122;48.208;11.174;2023-03-09T07:10:48;7.70;1.00
6178;DHT22;3122;48.208;11.174;2023-03-09T07:15:49;7.80;1.00
6178;DHT22;3122;48.208;11.174;2023-03-09T07:20:50;7.80;1.00
6178;DHT22;3122;48.208;11.174;2023-03-09T07:25:51;7.90;1.00
6178;DHT22;3122;48.208;11.174;2023-03-09T07:30:51;7.90;1.00
6178;DHT22;3122;48.208;11.174;2023-03-09T07:35:52;8.10;1.00
6178;DHT22;3122;48.208;11.174;2023-03-09T07:40:53;8.20;1.00
6178;DHT22;3122;48.208;11.174;2023-03-09T07:45:53;8.40;1.00
6178;DHT22;3122;48.208;11.174;2023-03-09T07:51:03;8.50;1.00
6178;DHT22;3122;48.208;11.174;2023-03-09T07:56:06;8.70;1.00
6178;DHT22;3122;48.208;11.174;2023-03-09T08:01:15;8.90;1.00
6178;DHT22;3122;48.208;11.174;2023-03-09T08:06:17;9.00;1.00
6178;DHT22;3122;48.208;11.174;2023-03-09T08:11:18;9.00;1.00
6178;DHT22;3122;48.208;11.174;2023-03-09T08:16:18;9.00;1.00
6178;DHT22;3122;48.208;11.174;2023-03-09T08:21:19;9.10;1.00
6178;DHT22;3122;48.208;11.174;2023-03-09T08:26:20;9.10;1.00
6178;DHT22;3122;48.208;11.174;2023-03-09T08:31:21;9.10;1.00
6178;DHT22;3122;48.208;11.174;2023-03-09T08:36:23;9.20;1.00
6178;DHT22;3122;48.208;11.174;2023-03-09T08:41:24;9.40;1.00
6178;DHT22;3122;48.208;11.174;2023-03-09T08:46:24;9.50;1.00
6178;DHT22;3122;48.208;11.174;2023-03-09T08:51:25;9.60;1.00
6178;DHT22;3122;48.208;11.174;2023-03-09T08:56:27;9.70;1.00
6178;DHT22;3122;48.208;11.174;2023-03-09T09:01:28;9.80;1.00
6178;DHT22;3122;48.208;11.174;2023-03-09T09:06:28;10.00;1.00
6178;DHT22;3122;48.208;11.174;2023-03-09T09:11:29;10.10;1.00
6178;DHT22;3122;48.208;11.174;2023-03-09T09:16:30;9.90;1.00
6178;DHT22;3122;48.208;11.174;2023-03-09T09:21:30;9.80;1.00
6178;DHT22;3122;48.208;11.174;2023-03-09T09:26:31;9.70;1.00
6178;DHT22;3122;48.208;11.174;2023-03-09T09:31:32;9.70;1.00
6178;DHT22;3122;48.208;11.174;2023-03-09T09:36:33;10.00;1.00
6178;DHT22;3122;48.208;11.174;2023-03-09T09:41:56;9.90;1.00
6178;DHT22;3122;48.208;11.174;2023-03-09T09:47:00;10.00;1.00
6178;DHT22;3122;48.208;11.174;2023-03-09T10:02:56;10.00;1.00
6178;DHT22;3122;48.208;11.174;2023-03-09T10:08:28;10.40;1.00
6178;DHT22;3122;48.208;11.174;2023-03-09T10:13:49;10.50;1.00
6178;DHT22;3122;48.208;11.174;2023-03-09T10:18:57;10.60;1.00
6178;DHT22;3122;48.208;11.174;2023-03-09T10:24:07;10.50;1.00
6178;DHT22;3122;48.208;11.174;2023-03-09T10:29:25;10.40;1.00
6178;DHT22;3122;48.208;11.174;2023-03-09T10:34:27;10.60;1.00
6178;DHT22;3122;48.208;11.174;2023-03-09T10:39:32;10.90;1.00
6178;DHT22;3122;48.208;11.174;2023-03-09T10:44:34;10.90;1.00
6178;DHT22;3122;48.208;11.174;2023-03-09T10:49:35;11.10;1.00
6178;DHT22;3122;48.208;11.174;2023-03-09T10:54:40;10.80;1.00
6178;DHT22;3122;48.208;11.174;2023-03-09T10:59:57;10.70;1.00
6178;DHT22;3122;48.208;11.174;2023-03-09T11:04:58;10.60;1.00
6178;DHT22;3122;48.208;11.174;2023-03-09T11:10:32;10.60;1.00
6178;DHT22;3122;48.208;11.174;2023-03-09T11:15:35;11.00;1.00
6178;DHT22;3122;48.208;11.174;2023-03-09T11:20:38;11.10;1.00
6178;DHT22;3122;48.208;11.174;2023-03-09T11:30:51;11.10;1.00
6178;DHT22;3122;48.208;11.174;2023-03-09T11:35:54;11.00;1.00
6178;DHT22;3122;48.208;11.174;2023-03-09T11:41:06;11.20;1.00
6178;DHT22;3122;48.208;11.174;2023-03-09T11:46:11;11.50;1.00
6178;DHT22;3122;48.208;11.174;2023-03-09T11:51:29;11.70;1.00
6178;DHT22;3122;48.208;11.174;2023-03-09T11:56:37;11.70;1.00
6178;DHT22;3122;48.208;11.174;2023-03-09T12:02:01;11.70;1.00
6178;DHT22;3122;48.208;11.174;2023-03-09T12:07:08;11.80;1.00
6178;DHT22;3122;48.208;11.174;2023-03-09T12:12:50;11.90;1.00
6178;DHT22;3122;48.208;11.174;2023-03-09T12:18:00;11.80;1.00
6178;DHT22;3122;48.208;11.174;2023-03-09T12:23:02;12.00;1.00
6178;DHT22;3122;48.208;11.174;2023-03-09T12:28:03;12.00;1.00
6178;DHT22;3122;48.208;11.174;2023-03-09T12:33:04;12.30;1.00
6178;DHT22;3122;48.208;11.174;2023-03-09T12:38:15;12.30;1.00
6178;DHT22;3122;48.208;11.174;2023-03-09T12:48:28;12.40;1.00
6178;DHT22;3122;48.208;11.174;2023-03-09T12:53:31;12.50;1.00
6178;DHT22;3122;48.208;11.174;2023-03-09T12:58:35;12.40;1.00
6178;DHT22;3122;48.208;11.174;2023-03-09T13:08:58;12.30;1.00
6178;DHT22;3122;48.208;11.174;2023-03-09T13:14:02;12.20;1.00
6178;DHT22;3122;48.208;11.174;2023-03-09T13:29:43;12.80;1.00
6178;DHT22;3122;48.208;11.174;2023-03-09T13:34:46;13.00;1.00
6178;DHT22;3122;48.208;11.174;2023-03-09T13:40:21;13.10;1.00
6178;DHT22;3122;48.208;11.174;2023-03-09T13:45:25;13.20;1.00
6178;DHT22;3122;48.208;11.174;2023-03-09T13:50:28;12.90;1.00
6178;DHT22;3122;48.208;11.174;2023-03-09T13:55:31;12.80;1.00
6178;DHT22;3122;48.208;11.174;2023-03-09T14:00:32;12.70;1.00
6178;DHT22;3122;48.208;11.174;2023-03-09T14:05:32;12.30;1.00
6178;DHT22;3122;48.208;11.174;2023-03-09T14:10:36;12.10;1.00
6178;DHT22;3122;48.208;11.174;2023-03-09T14:15:37;12.10;1.00
6178;DHT22;3122;48.208;11.174;2023-03-09T14:20:39;12.20;1.00
6178;DHT22;3122;48.208;11.174;2023-03-09T14:25:41;12.20;1.00
6178;DHT22;3122;48.208;11.174;2023-03-09T14:30:42;12.50;1.00
6178;DHT22;3122;48.208;11.174;2023-03-09T14:35:43;12.80;1.00
6178;DHT22;3122;48.208;11.174;2023-03-09T14:40:44;13.10;1.00
6178;DHT22;3122;48.208;11.174;2023-03-09T14:45:44;13.30;1.00
6178;DHT22;3122;48.208;11.174;2023-03-09T14:50:45;13.10;1.00
6178;DHT22;3122;48.208;11.174;2023-03-09T14:55:46;13.10;1.00
6178;DHT22;3122;48.208;11.174;2023-03-09T15:00:47;13.00;1.00
6178;DHT22;3122;48.208;11.174;2023-03-09T15:05:47;12.90;1.00
6178;DHT22;3122;48.208;11.174;2023-03-09T15:10:48;12.80;1.00
6178;DHT22;3122;48.208;11.174;2023-03-09T15:15:48;12.60;1.00
6178;DHT22;3122;48.208;11.174;2023-03-09T15:20:49;12.50;1.00
6178;DHT22;3122;48.208;11.174;2023-03-09T15:25:49;12.60;1.00
6178;DHT22;3122;48.208;11.174;2023-03-09T15:30:50;12.60;1.00
6178;DHT22;3122;48.208;11.174;2023-03-09T15:35:51;12.60;1.00
6178;DHT22;3122;48.208;11.174;2023-03-09T15:40:51;12.50;1.00
6178;DHT22;3122;48.208;11.174;2023-03-09T15:45:52;12.60;1.00
6178;DHT22;3122;48.208;11.174;2023-03-09T15:50:52;12.50;1.00
6178;DHT22;3122;48.208;11.174;2023-03-09T15:56:00;12.50;1.00
6178;DHT22;3122;48.208;11.174;2023-03-09T16:01:07;12.40;1.00
6178;DHT22;3122;48.208;11.174;2023-03-09T16:06:12;12.20;1.00
6178;DHT22;3122;48.208;11.174;2023-03-09T16:11:13;12.20;1.00
6178;DHT22;3122;48.208;11.174;2023-03-09T16:16:14;12.10;1.00
6178;DHT22;3122;48.208;11.174;2023-03-09T16:21:15;12.10;1.00
6178;DHT22;3122;48.208;11.174;2023-03-09T16:26:17;12.00;1.00
6178;DHT22;3122;48.208;11.174;2023-03-09T16:31:23;11.90;1.00
6178;DHT22;3122;48.208;11.174;2023-03-09T16:36:26;11.80;1.00
6178;DHT22;3122;48.208;11.174;2023-03-09T16:41:27;11.70;1.00
6178;DHT22;3122;48.208;11.174;2023-03-09T16:46:28;11.60;1.00
6178;DHT22;3122;48.208;11.174;2023-03-09T16:51:29;11.50;1.00
6178;DHT22;3122;48.208;11.174;2023-03-09T16:56:30;11.30;1.00
6178;DHT22;3122;48.208;11.174;2023-03-09T17:01:31;11.20;1.00
6178;DHT22;3122;48.208;11.174;2023-03-09T17:06:32;11.00;1.00
6178;DHT22;3122;48.208;11.174;2023-03-09T17:11:34;10.80;1.00
6178;DHT22;3122;48.208;11.174;2023-03-09T17:16:36;10.70;1.00
6178;DHT22;3122;48.208;11.174;2023-03-09T17:21:36;10.60;1.00
6178;DHT22;3122;48.208;11.174;2023-03-09T17:26:37;10.50;1.00
6178;DHT22;3122;48.208;11.174;2023-03-09T17:31:38;10.30;1.00
6178;DHT22;3122;48.208;11.174;2023-03-09T17:36:38;10.20;1.00
6178;DHT22;3122;48.208;11.174;2023-03-09T17:41:39;10.00;1.00
6178;DHT22;3122;48.208;11.174;2023-03-09T17:46:40;9.90;1.00
6178;DHT22;3122;48.208;11.174;2023-03-09T17:51:40;9.70;1.00
6178;DHT22;3122;48.208;11.174;2023-03-09T17:56:41;9.60;1.00
6178;DHT22;3122;48.208;11.174;2023-03-09T18:01:42;9.40;1.00
6178;DHT22;3122;48.208;11.174;2023-03-09T18:06:42;9.30;1.00
6178;DHT22;3122;48.208;11.174;2023-03-09T18:11:44;9.20;1.00
6178;DHT22;3122;48.208;11.174;2023-03-09T18:16:44;9.10;1.00
6178;DHT22;3122;48.208;11.174;2023-03-09T18:21:45;8.90;1.00
6178;DHT22;3122;48.208;11.174;2023-03-09T18:26:45;8.90;1.00
6178;DHT22;3122;48.208;11.174;2023-03-09T18:31:49;8.90;1.00
6178;DHT22;3122;48.208;11.174;2023-03-09T18:36:50;8.80;1.00
6178;DHT22;3122;48.208;11.174;2023-03-09T18:41:50;8.60;1.00
6178;DHT22;3122;48.208;11.174;2023-03-09T18:46:51;8.50;1.00
6178;DHT22;3122;48.208;11.174;2023-03-09T18:51:51;8.40;1.00
6178;DHT22;3122;48.208;11.174;2023-03-09T18:56:52;8.20;1.00
6178;DHT22;3122;48.208;11.174;2023-03-09T19:01:52;8.00;1.00
6178;DHT22;3122;48.208;11.174;2023-03-09T19:06:53;7.90;1.00
6178;DHT22;3122;48.208;11.174;2023-03-09T19:11:54;7.90;1.00
6178;DHT22;3122;48.208;11.174;2023-03-09T19:16:55;7.60;1.00
6178;DHT22;3122;48.208;11.174;2023-03-09T19:21:55;7.60;1.00
6178;DHT22;3122;48.208;11.174;2023-03-09T19:26:56;7.50;1.00
6178;DHT22;3122;48.208;11.174;2023-03-09T19:31:56;7.30;1.00
6178;DHT22;3122;48.208;11.174;2023-03-09T19:36:57;7.30;1.00
6178;DHT22;3122;48.208;11.174;2023-03-09T19:41:58;7.10;1.00
6178;DHT22;3122;48.208;11.174;2023-03-09T19:46:59;7.00;1.00
6178;DHT22;3122;48.208;11.174;2023-03-09T19:52:04;6.80;1.00
6178;DHT22;3122;48.208;11.174;2023-03-09T19:57:05;6.60;1.00
6178;DHT22;3122;48.208;11.174;2023-03-09T20:02:08;6.60;1.00
6178;DHT22;3122;48.208;11.174;2023-03-09T20:07:09;6.70;1.00
6178;DHT22;3122;48.208;11.174;2023-03-09T20:12:09;6.60;1.00
6178;DHT22;3122;48.208;11.174;2023-03-09T20:17:10;6.40;1.00
6178;DHT22;3122;48.208;11.174;2023-03-09T20:22:11;6.30;1.00
6178;DHT22;3122;48.208;11.174;2023-03-09T20:27:12;6.30;1.00
6178;DHT22;3122;48.208;11.174;2023-03-09T20:32:14;6.20;1.00
6178;DHT22;3122;48.208;11.174;2023-03-09T20:37:15;6.20;1.00
6178;DHT22;3122;48.208;11.174;2023-03-09T20:42:17;6.10;1.00
6178;DHT22;3122;48.208;11.174;2023-03-09T20:47:18;6.10;1.00
6178;DHT22;3122;48.208;11.174;2023-03-09T20:52:18;6.20;1.00
6178;DHT22;3122;48.208;11.174;2023-03-09T20:57:19;6.30;1.00
6178;DHT22;3122;48.208;11.174;2023-03-09T21:02:19;6.60;1.00
6178;DHT22;3122;48.208;11.174;2023-03-09T21:07:20;6.60;1.00
6178;DHT22;3122;48.208;11.174;2023-03-09T21:12:20;6.40;1.00
6178;DHT22;3122;48.208;11.174;2023-03-09T21:17:22;6.30;1.00
6178;DHT22;3122;48.208;11.174;2023-03-09T21:22:23;6.20;1.00
6178;DHT22;3122;48.208;11.174;2023-03-09T21:27:24;6.20;1.00
6178;DHT22;3122;48.208;11.174;2023-03-09T21:32:25;6.40;1.00
6178;DHT22;3122;48.208;11.174;2023-03-09T21:37:26;6.60;1.00
6178;DHT22;3122;48.208;11.174;2023-03-09T21:42:27;6.80;1.00
6178;DHT22;3122;48.208;11.174;2023-03-09T21:47:28;6.70;1.00
6178;DHT22;3122;48.208;11.174;2023-03-09T21:52:29;6.70;1.00
6178;DHT22;3122;48.208;11.174;2023-03-09T21:57:30;6.60;1.00
6178;DHT22;3122;48.208;11.174;2023-03-09T22:02:31;6.50;1.00
6178;DHT22;3122;48.208;11.174;2023-03-09T22:07:32;6.50;1.00
6178;DHT22;3122;48.208;11.174;2023-03-09T22:12:33;6.50;1.00
6178;DHT22;3122;48.208;11.174;2023-03-09T22:17:37;6.50;1.00
6178;DHT22;3122;48.208;11.174;2023-03-09T22:22:39;6.50;1.00
6178;DHT22;3122;48.208;11.174;2023-03-09T22:27:40;6.50;1.00
6178;DHT22;3122;48.208;11.174;2023-03-09T22:32:41;6.40;1.00
6178;DHT22;3122;48.208;11.174;2023-03-09T22:37:42;6.30;1.00
6178;DHT22;3122;48.208;11.174;2023-03-09T22:42:42;6.20;1.00
6178;DHT22;3122;48.208;11.174;2023-03-09T22:47:43;6.20;1.00
6178;DHT22;3122;48.208;11.174;2023-03-09T22:52:43;6.30;1.00
6178;DHT22;3122;48.208;11.174;2023-03-09T22:57:44;6.30;1.00
6178;DHT22;3122;48.208;11.174;2023-03-09T23:02:44;6.20;1.00
6178;DHT22;3122;48.208;11.174;2023-03-09T23:07:45;6.10;1.00
6178;DHT22;3122;48.208;11.174;2023-03-09T23:12:46;6.10;1.00
6178;DHT22;3122;48.208;11.174;2023-03-09T23:17:47;6.10;1.00
6178;DHT22;3122;48.208;11.174;2023-03-09T23:22:47;6.10;1.00
6178;DHT22;3122;48.208;11.174;2023-03-09T23:27:48;6.40;1.00
6178;DHT22;3122;48.208;11.174;2023-03-09T23:32:49;6.30;1.00
6178;DHT22;3122;48.208;11.174;2023-03-09T23:37:49;6.40;1.00
6178;DHT22;3122;48.208;11.174;2023-03-09T23:42:51;6.70;1.00
6178;DHT22;3122;48.208;11.174;2023-03-09T23:47:52;6.50;1.00
6178;DHT22;3122;48.208;11.174;2023-03-09T23:52:52;6.40;1.00
6178;DHT22;3122;48.208;11.174;2023-03-09T23:57:53;6.30;1.00
